Startpagina
METAR-TAF:

METAR-TAF

Vliegvelden :

Curaçao International Airport

Curaçao, Nederlandse Antillen

breedte: 12-12N, lengte: 068-58W, hoogte: 9 m

Actueel weer

Dit bericht is 53 minuten geleden gemaakt, om 18:00 UTC
Wind 14 kt uit het oosten, variërend tussen het oostnoordoosten en het zuidoosten
Temperatuur 31°C
Vochtigheid 59%
Druk 1014 hPa
Zicht 10 km of meer
Weinig wolken op 2000 ft

METAR: TNCC 231800Z COR 10014KT 070V130 9999 FEW020 31/22 Q1014 NOSIG

Tijdstip: 14:53 (18:53 UTC)

Verwachting

Dit bericht is 2 uur en het 53 minuten geleden gemaakt, om 16:00 UTC
Verwachting geldig van 23 om 18 UTC tot 24 om 18 UTC
Wind 14 kt uit het oostzuidoosten met uitschieters tot 25 kt
Zicht 10 km of meer
Verspreide wolken op 2000 ft
Tijdelijke
van 23 om 18 UTC tot 24 om 14 UTC
Gebroken wolken op 1500 ft

TAF: TNCC 231600Z 2318/2418 11014G25KT 9999 SCT020 TEMPO 2318/2414 BKN015

Waarnemingen en weersverwachtingen van meer dan 4000 vliegvelden (METAR en TAF).

De beschikbare stations zijn de gele en rode punten op de kaart.

Ga met uw muis naar het station om de naam te zien.

Klik dan om waarnemingen en weersverwachtingen te zien.

kaart wijzigen: klik op de groene knoppen met een zwart kruis om in te zoomen, op de groene knop met een streepje om uit te zoomen of op de groene pijlen voor aangrenzende kaarten.


METAR-TAF: